Time;durP1;ratioP1;P1;durP2;ratioP2;P2;SDS_P1;SDS_P2;PMS_P1;PMS_P2;Temp;Humidity;BMP_temperature;BMP_pressure;BME280_temperature;BME280_humidity;BME280_pressure;Samples;Min_cycle;Max_cycle;Signal;HPM_P1;HPM_P2
2020/12/03 00:00:55;;;;;;;86.60;44.25;;;;;;;1.15;100.00;100209.56;5201751;28;20815;-82
2020/12/03 00:03:32;;;;;;;85.57;44.38;;;;;;;1.08;100.00;100215.59;5201536;28;20033;-82
2020/12/03 00:06:11;;;;;;;86.10;43.63;;;;;;;1.11;100.00;100220.75;5201221;28;20026;-81
2020/12/03 00:08:48;;;;;;;85.65;44.92;;;;;;;0.97;100.00;100208.78;5202325;28;20029;-81
2020/12/03 00:11:20;;;;;;;85.15;42.88;;;;;;;0.89;100.00;100207.97;5202419;28;20124;-83
2020/12/03 00:13:51;;;;;;;88.78;44.25;;;;;;;0.88;100.00;100207.09;5201913;28;20108;-81
2020/12/03 00:16:23;;;;;;;84.18;43.65;;;;;;;0.80;100.00;100200.25;5203279;28;20575;-81
2020/12/03 00:18:53;;;;;;;85.07;43.08;;;;;;;0.76;100.00;100199.41;5204901;28;20391;-82
2020/12/03 00:21:35;;;;;;;82.82;42.80;;;;;;;0.88;100.00;100196.78;5205327;28;20033;-82
2020/12/03 00:24:07;;;;;;;88.07;42.70;;;;;;;0.82;100.00;100186.53;5198463;28;20032;-82
2020/12/03 00:26:38;;;;;;;82.15;41.92;;;;;;;0.56;100.00;100185.72;5205190;28;20032;-83
2020/12/03 00:29:09;;;;;;;81.55;42.58;;;;;;;0.41;100.00;100178.06;5205141;28;20033;-82
2020/12/03 00:31:43;;;;;;;89.75;43.33;;;;;;;0.39;100.00;100177.19;5205029;28;20017;-83
2020/12/03 00:34:14;;;;;;;87.85;43.58;;;;;;;0.20;100.00;100179.81;5205168;28;20025;-82
2020/12/03 00:36:44;;;;;;;86.47;42.75;;;;;;;0.33;100.00;100171.22;5203355;28;20610;-83
2020/12/03 00:39:16;;;;;;;87.00;43.53;;;;;;;0.28;100.00;100171.25;5205072;28;20112;-80
2020/12/03 00:41:51;;;;;;;85.32;41.22;;;;;;;0.34;100.00;100176.38;5204283;28;20101;-82
2020/12/03 00:44:22;;;;;;;87.82;43.15;;;;;;;0.33;100.00;100179.78;5204781;28;20025;-82
2020/12/03 00:46:53;;;;;;;82.32;41.95;;;;;;;0.44;100.00;100183.22;5204723;28;20037;-83
2020/12/03 00:49:23;;;;;;;83.15;42.55;;;;;;;0.40;100.00;100178.06;5205378;28;20018;-82
2020/12/03 00:51:53;;;;;;;82.15;41.38;;;;;;;0.53;100.00;100177.19;5203946;28;20037;-82
2020/12/03 00:54:23;;;;;;;85.30;42.00;;;;;;;0.38;100.00;100167.78;5203596;28;20590;-83
2020/12/03 00:56:54;;;;;;;79.40;40.80;;;;;;;0.60;100.00;100166.03;5204390;28;20483;-83
2020/12/03 00:59:24;;;;;;;76.72;39.70;;;;;;;0.73;100.00;100165.16;5203720;28;20035;-82
2020/12/03 01:01:54;;;;;;;76.80;39.78;;;;;;;0.70;100.00;100160.84;5204158;28;20072;-82
2020/12/03 01:04:24;;;;;;;78.00;41.05;;;;;;;0.75;100.00;100164.25;5204010;28;20116;-82
2020/12/03 01:06:58;;;;;;;79.40;40.15;;;;;;;0.72;100.00;100148.84;5204374;28;20681;-82
2020/12/03 01:09:28;;;;;;;77.18;39.42;;;;;;;0.80;100.00;100141.97;5204175;28;20063;-83
2020/12/03 01:11:58;;;;;;;77.15;39.53;;;;;;;0.93;100.00;100138.47;5204646;28;20014;-82
2020/12/03 01:14:29;;;;;;;74.15;38.63;;;;;;;0.93;100.00;100127.34;5206063;28;20076;-82
2020/12/03 01:16:59;;;;;;;72.43;38.00;;;;;;;1.01;100.00;100123.00;5208123;28;20033;-82
2020/12/03 01:19:29;;;;;;;71.25;37.00;;;;;;;0.93;100.00;100114.50;5210813;28;20044;-82
2020/12/03 01:21:59;;;;;;;73.95;36.17;;;;;;;0.89;100.00;100116.22;5215320;28;20040;-83
2020/12/03 01:24:30;;;;;;;78.22;37.80;;;;;;;0.97;100.00;100113.59;5204294;28;20121;-82
2020/12/03 01:27:01;;;;;;;72.00;37.58;;;;;;;0.93;100.00;100107.63;5203315;28;20167;-83
2020/12/03 01:29:31;;;;;;;74.38;36.67;;;;;;;0.97;100.00;100109.34;5211230;28;20033;-84
2020/12/03 01:32:01;;;;;;;73.22;37.22;;;;;;;1.04;100.00;100111.00;5211251;28;20029;-84
2020/12/03 01:34:32;;;;;;;69.85;35.75;;;;;;;1.00;100.00;100109.31;5211167;28;20037;-84
2020/12/03 01:37:02;;;;;;;70.18;36.97;;;;;;;0.96;100.00;100102.47;5211248;28;20029;-83
2020/12/03 01:39:32;;;;;;;68.70;35.58;;;;;;;1.00;100.00;100106.75;5212377;28;20376;-84
2020/12/03 01:42:03;;;;;;;71.28;36.25;;;;;;;0.99;100.00;100107.59;5211353;28;20033;-84
2020/12/03 01:44:43;;;;;;;66.22;34.42;;;;;;;1.02;100.00;100099.88;5210888;28;20036;-83
2020/12/03 01:47:21;;;;;;;67.38;33.65;;;;;;;1.05;100.00;100099.84;5211949;28;20400;-83
2020/12/03 01:49:52;;;;;;;64.47;33.63;;;;;;;1.09;100.00;100082.69;5211363;28;20029;-84
2020/12/03 01:52:22;;;;;;;63.78;33.00;;;;;;;1.13;99.41;100079.22;5210902;28;20035;-84
2020/12/03 01:54:53;;;;;;;62.83;32.63;;;;;;;1.08;99.14;100068.94;5211398;28;20033;-83
2020/12/03 01:57:52;;;;;;;57.78;31.23;;;;;;;1.20;98.57;100068.88;5210251;28;20038;-83
2020/12/03 02:00:22;;;;;;;61.10;31.45;;;;;;;1.14;98.48;100068.94;5207184;28;20026;-84
2020/12/03 02:02:53;;;;;;;65.75;34.35;;;;;;;1.17;99.24;100061.19;5208964;28;20028;-83
2020/12/03 02:05:29;;;;;;;67.32;34.42;;;;;;;1.17;99.98;100061.19;5210768;28;20040;-83
2020/12/03 02:07:59;;;;;;;64.05;33.70;;;;;;;1.05;100.00;100056.13;5210353;28;20368;-83
2020/12/03 02:10:30;;;;;;;66.68;34.85;;;;;;;1.04;100.00;100040.72;5212242;28;20021;-83
2020/12/03 02:13:01;;;;;;;68.65;35.00;;;;;;;1.01;100.00;100049.28;5211003;28;20422;-83
2020/12/03 02:15:31;;;;;;;72.07;34.47;;;;;;;1.03;100.00;100033.88;5210598;28;20033;-84
2020/12/03 02:18:06;;;;;;;67.57;34.08;;;;;;;0.99;100.00;100029.56;5210329;28;20095;-82
2020/12/03 02:20:36;;;;;;;68.00;34.83;;;;;;;0.96;100.00;100015.03;5209303;28;20036;-83
2020/12/03 02:23:16;;;;;;;70.90;36.63;;;;;;;0.97;100.00;100010.72;5210751;28;20044;-82
2020/12/03 02:25:47;;;;;;;66.85;34.42;;;;;;;0.98;100.00;100002.16;5210033;28;20021;-83
2020/12/03 02:28:17;;;;;;;65.65;33.75;;;;;;;0.95;100.00;100002.19;5209335;28;20029;-83
2020/12/03 02:30:47;;;;;;;67.43;34.53;;;;;;;1.02;100.00;99996.97;5210453;28;20410;-83
2020/12/03 02:33:18;;;;;;;64.25;33.92;;;;;;;0.94;100.00;99991.03;5207478;28;20061;-82
2020/12/03 02:35:48;;;;;;;71.13;34.78;;;;;;;0.94;100.00;99991.03;5207848;28;20029;-82
2020/12/03 02:38:18;;;;;;;66.80;33.47;;;;;;;0.98;100.00;99987.59;5206190;28;20034;-82
2020/12/03 02:40:48;;;;;;;64.55;33.67;;;;;;;0.95;100.00;99982.47;5210901;28;20032;-84
2020/12/03 02:43:19;;;;;;;66.32;33.65;;;;;;;1.03;100.00;99985.81;5211105;28;20025;-84
2020/12/03 02:45:49;;;;;;;65.88;34.20;;;;;;;1.01;100.00;99981.53;5210877;28;20030;-83
2020/12/03 02:48:20;;;;;;;63.90;34.28;;;;;;;0.95;100.00;99982.47;5209947;28;20518;-83
2020/12/03 02:50:50;;;;;;;62.35;33.47;;;;;;;1.04;100.00;99974.66;5209923;28;20071;-83
2020/12/03 02:53:21;;;;;;;62.20;33.05;;;;;;;1.00;99.97;99977.28;5208712;28;20151;-82
2020/12/03 02:55:51;;;;;;;63.28;31.65;;;;;;;1.02;98.72;99978.09;5210652;28;20508;-82
2020/12/03 02:58:21;;;;;;;60.53;30.13;;;;;;;1.05;98.51;99963.50;5208949;28;20025;-82
2020/12/03 03:00:51;;;;;;;57.95;30.52;;;;;;;1.01;98.24;99966.97;5208694;28;20022;-83
2020/12/03 03:03:22;;;;;;;62.88;30.70;;;;;;;1.11;98.05;99963.50;5208426;28;20060;-83
2020/12/03 03:05:52;;;;;;;60.92;32.20;;;;;;;1.12;98.94;99962.63;5208413;28;20372;-83
2020/12/03 03:08:23;;;;;;;59.65;32.22;;;;;;;1.10;98.88;99958.34;5209191;28;20695;-83
2020/12/03 03:10:54;;;;;;;59.63;29.92;;;;;;;1.06;98.92;99959.25;5210715;28;20325;-84
2020/12/03 03:13:24;;;;;;;55.85;30.30;;;;;;;1.18;98.65;99959.13;5210879;28;20025;-84
2020/12/03 03:15:55;;;;;;;55.28;30.40;;;;;;;1.28;97.74;99960.75;5209770;28;20022;-84
2020/12/03 03:18:26;;;;;;;54.03;29.50;;;;;;;1.31;97.08;99956.44;5210440;28;20079;-84
2020/12/03 03:20:56;;;;;;;52.20;28.60;;;;;;;1.26;97.66;99953.03;5209981;28;20021;-84
2020/12/03 03:23:26;;;;;;;53.50;28.63;;;;;;;1.20;96.83;99953.09;5210209;28;20163;-84
2020/12/03 03:25:56;;;;;;;52.35;28.85;;;;;;;1.20;97.40;99955.69;5209407;28;20482;-83
2020/12/03 03:28:27;;;;;;;56.47;29.27;;;;;;;1.26;98.19;99954.78;5208801;28;20029;-83
2020/12/03 03:30:57;;;;;;;54.88;27.95;;;;;;;1.18;96.60;99943.69;5206309;28;20024;-83
2020/12/03 03:33:27;;;;;;;52.97;27.30;;;;;;;1.17;96.04;99937.69;5207882;28;20053;-83
2020/12/03 03:35:58;;;;;;;50.65;26.92;;;;;;;1.20;96.06;99936.84;5209054;28;20060;-83
2020/12/03 03:38:28;;;;;;;51.72;28.00;;;;;;;1.18;95.50;99934.25;5209444;28;20511;-84
2020/12/03 03:40:58;;;;;;;53.55;28.15;;;;;;;1.26;95.79;99927.31;5210147;28;20152;-83
2020/12/03 03:43:29;;;;;;;54.92;28.42;;;;;;;1.21;96.13;99926.50;5209099;28;20025;-83
2020/12/03 03:45:59;;;;;;;50.42;27.45;;;;;;;1.16;96.49;99925.72;5209001;28;20065;-82
2020/12/03 03:48:30;;;;;;;54.17;28.88;;;;;;;1.30;95.75;99926.44;5208718;28;20132;-84
2020/12/03 03:51:00;;;;;;;51.10;28.25;;;;;;;1.32;97.30;99921.25;5208276;28;20032;-84
2020/12/03 03:53:31;;;;;;;47.92;27.25;;;;;;;1.29;95.03;99921.28;5208913;28;20151;-83
2020/12/03 03:56:01;;;;;;;45.58;25.00;;;;;;;1.29;93.56;99917.03;5208035;28;20022;-83
2020/12/03 03:58:32;;;;;;;46.42;25.30;;;;;;;1.40;93.29;99914.34;5208246;28;20056;-84
2020/12/03 04:01:02;;;;;;;44.60;24.58;;;;;;;1.39;92.91;99918.63;5207713;28;20053;-84
2020/12/03 04:03:33;;;;;;;47.22;26.17;;;;;;;1.50;94.33;99918.50;5205736;28;20028;-84
2020/12/03 04:06:03;;;;;;;48.58;26.58;;;;;;;1.53;94.46;99908.19;5209518;28;20121;-83
2020/12/03 04:08:34;;;;;;;54.25;27.27;;;;;;;1.44;95.49;99916.00;5207406;28;20128;-83
2020/12/03 04:11:04;;;;;;;50.17;27.83;;;;;;;1.47;96.78;99913.41;5209477;28;20030;-83
2020/12/03 04:13:34;;;;;;;55.08;29.88;;;;;;;1.53;96.79;99911.63;5208925;28;20045;-84
2020/12/03 04:16:04;;;;;;;50.65;29.27;;;;;;;1.52;97.47;99909.91;5209681;28;20479;-83
2020/12/03 04:18:35;;;;;;;51.05;28.48;;;;;;;1.48;96.98;99902.22;5209516;28;20039;-84
2020/12/03 04:21:08;;;;;;;51.90;29.48;;;;;;;1.29;96.00;99900.72;5208086;28;20026;-83
2020/12/03 04:23:38;;;;;;;55.15;29.30;;;;;;;1.48;96.09;99900.53;5207892;28;20029;-83
2020/12/03 04:26:11;;;;;;;58.72;31.40;;;;;;;1.43;96.37;99909.16;5209453;28;20120;-84
2020/12/03 04:28:41;;;;;;;57.65;30.25;;;;;;;1.37;96.58;99897.19;5209805;28;20025;-84
2020/12/03 04:31:12;;;;;;;57.10;31.80;;;;;;;1.30;96.87;99897.28;5209088;28;20109;-84
2020/12/03 04:33:42;;;;;;;59.05;31.48;;;;;;;1.37;96.98;99888.63;5208645;28;20087;-83
2020/12/03 04:36:12;;;;;;;56.97;31.08;;;;;;;1.30;97.26;99884.41;5209070;28;20048;-83
2020/12/03 04:38:43;;;;;;;57.22;30.55;;;;;;;1.26;96.70;99881.00;5208587;28;20029;-82
2020/12/03 04:41:13;;;;;;;60.08;32.85;;;;;;;1.29;97.48;99867.25;5209048;28;20029;-82
2020/12/03 04:43:48;;;;;;;59.28;31.38;;;;;;;1.26;97.07;99870.69;5208641;28;20061;-83
2020/12/03 04:46:22;;;;;;;57.35;32.38;;;;;;;1.19;96.69;99863.94;5209080;28;20044;-82
2020/12/03 04:49:29;;;;;;;57.55;31.73;;;;;;;1.26;96.94;99862.16;5207685;28;20044;-83
2020/12/03 04:52:24;;;;;;;61.25;32.03;;;;;;;1.36;96.90;99861.16;5214060;28;20021;-83
2020/12/03 04:55:18;;;;;;;58.92;32.17;;;;;;;1.24;96.79;99846.72;5191620;28;20049;-82
2020/12/03 04:58:10;;;;;;;61.13;31.83;;;;;;;1.25;96.90;99845.84;5209131;28;20028;-82
2020/12/03 05:00:47;;;;;;;58.03;31.75;;;;;;;1.22;97.22;99845.88;5212345;28;20076;-82
2020/12/03 05:03:54;;;;;;;59.38;33.22;;;;;;;1.16;97.42;99838.22;5214186;28;20021;-83
2020/12/03 05:06:54;;;;;;;61.80;31.67;;;;;;;1.15;98.11;99836.53;5214001;28;20025;-82
2020/12/03 05:09:35;;;;;;;61.55;32.25;;;;;;;1.17;97.84;99841.63;5213767;28;20037;-84
2020/12/03 05:12:29;;;;;;;59.70;32.30;;;;;;;1.27;98.33;99836.38;5212332;28;20021;-83
2020/12/03 05:15:13;;;;;;;59.10;32.13;;;;;;;1.27;98.24;99835.56;5213721;28;20029;-82
2020/12/03 05:18:02;;;;;;;59.83;30.98;;;;;;;1.24;97.55;99839.00;5212448;28;20057;-82
2020/12/03 05:21:03;;;;;;;58.47;30.90;;;;;;;1.29;97.55;99826.97;5211983;28;20052;-82
2020/12/03 05:23:34;;;;;;;58.03;31.08;;;;;;;1.44;97.42;99834.47;5199109;28;20037;-83
2020/12/03 05:26:14;;;;;;;57.65;31.88;;;;;;;1.42;97.84;99827.66;5212815;28;20041;-82
2020/12/03 05:29:03;;;;;;;56.78;29.63;;;;;;;1.28;96.94;99824.38;5212608;28;20021;-83
2020/12/03 05:31:42;;;;;;;57.88;30.63;;;;;;;1.27;97.77;99820.09;5213138;28;20033;-83
2020/12/03 05:34:14;;;;;;;59.08;30.48;;;;;;;1.34;98.03;99809.75;5213204;28;20036;-83
2020/12/03 05:36:53;;;;;;;58.83;31.92;;;;;;;1.24;98.84;99807.28;5216479;28;20025;-83
2020/12/03 05:39:34;;;;;;;56.10;30.25;;;;;;;1.22;98.88;99799.56;5235839;22;20049;-78
2020/12/03 05:42:07;;;;;;;58.42;31.02;;;;;;;1.20;98.80;99796.16;5202184;28;20549;-77
2020/12/03 05:44:43;;;;;;;55.03;30.13;;;;;;;1.22;98.24;99786.72;5190904;28;20373;-78
2020/12/03 05:47:21;;;;;;;52.85;29.35;;;;;;;1.31;98.32;99789.19;5191059;28;20057;-79
2020/12/03 05:50:15;;;;;;;51.28;28.73;;;;;;;1.33;98.39;99784.88;5191025;28;20034;-78
2020/12/03 05:53:04;;;;;;;56.22;30.10;;;;;;;1.30;98.23;99774.63;5190246;28;20387;-78
2020/12/03 05:55:34;;;;;;;55.55;29.20;;;;;;;1.35;97.65;99777.97;5198093;28;20467;-78
2020/12/03 05:58:26;;;;;;;56.08;29.80;;;;;;;1.34;97.58;99771.13;5208327;28;20334;-80
2020/12/03 06:01:13;;;;;;;54.20;28.65;;;;;;;1.29;97.54;99767.78;5207495;28;20062;-78
2020/12/03 06:03:50;;;;;;;55.22;28.08;;;;;;;1.34;98.25;99766.00;5209922;28;20021;-78
2020/12/03 06:06:39;;;;;;;57.85;28.52;;;;;;;1.28;98.77;99781.50;5203985;28;20021;-78
2020/12/03 06:09:44;;;;;;;53.38;28.58;;;;;;;1.35;98.81;99785.72;5197832;28;20025;-79
2020/12/03 06:12:35;;;;;;;56.65;29.13;;;;;;;1.33;99.42;99776.28;5193214;28;20049;-79
2020/12/03 06:15:28;;;;;;;50.97;27.98;;;;;;;1.36;99.30;99769.41;5192974;28;20026;-79
2020/12/03 06:18:40;;;;;;;54.78;29.75;;;;;;;1.36;100.00;99774.53;5193764;28;20042;-78
2020/12/03 06:21:29;;;;;;;51.15;27.95;;;;;;;1.50;99.85;99775.22;5194252;28;20026;-79
2020/12/03 06:24:26;;;;;;;54.80;28.27;;;;;;;1.50;99.46;99772.66;5211330;28;20108;-79
2020/12/03 06:27:34;;;;;;;50.20;27.48;;;;;;;1.51;99.23;99774.34;5210159;28;20102;-78
2020/12/03 06:30:23;;;;;;;50.47;27.27;;;;;;;1.40;99.51;99777.94;5193193;28;20113;-79
2020/12/03 06:33:21;;;;;;;49.10;27.10;;;;;;;1.54;98.84;99778.63;5192750;28;20022;-78
2020/12/03 06:36:04;;;;;;;49.35;26.35;;;;;;;1.46;99.14;99768.44;5193548;28;20025;-78
2020/12/03 06:39:09;;;;;;;45.28;25.48;;;;;;;1.40;99.75;99770.22;5198724;28;20501;-78
2020/12/03 06:41:48;;;;;;;48.42;25.90;;;;;;;1.50;99.85;99764.94;5198179;28;20120;-78
2020/12/03 06:44:35;;;;;;;51.05;26.65;;;;;;;1.43;100.00;99765.88;5188108;28;20401;-78
2020/12/03 06:47:30;;;;;;;47.80;26.02;;;;;;;1.48;99.89;99758.09;5182426;28;20030;-75
2020/12/03 06:50:24;;;;;;;49.80;26.17;;;;;;;1.36;100.00;99759.09;5182523;28;20037;-76
2020/12/03 06:53:18;;;;;;;46.25;25.80;;;;;;;1.37;100.00;99765.94;5183179;28;20064;-75
2020/12/03 06:56:07;;;;;;;46.28;25.23;;;;;;;1.41;100.00;99754.75;5186078;28;20108;-76
2020/12/03 06:58:46;;;;;;;42.97;24.10;;;;;;;1.46;100.00;99757.25;5187622;28;20037;-75
2020/12/03 07:01:38;;;;;;;46.60;24.48;;;;;;;1.53;100.00;99751.16;5182654;28;20030;-75
2020/12/03 07:04:38;;;;;;;42.47;23.30;;;;;;;1.52;100.00;99745.16;5180222;28;20033;-75
2020/12/03 07:07:25;;;;;;;43.83;23.60;;;;;;;1.55;100.00;99734.81;5179771;28;20085;-76
2020/12/03 07:10:28;;;;;;;44.70;23.80;;;;;;;1.54;100.00;99738.28;5188192;28;20030;-76
2020/12/03 07:13:25;;;;;;;39.92;22.60;;;;;;;1.60;100.00;99733.03;5202028;28;20108;-76
2020/12/03 07:16:10;;;;;;;41.53;22.92;;;;;;;1.62;100.00;99730.44;5186145;28;20106;-76
2020/12/03 07:18:43;;;;;;;43.55;23.52;;;;;;;1.62;100.00;99726.16;5202635;28;20155;-76
2020/12/03 07:21:42;;;;;;;40.15;22.45;;;;;;;1.70;100.00;99724.34;5202607;28;20029;-76
2020/12/03 07:24:22;;;;;;;39.58;21.73;;;;;;;1.65;100.00;99720.97;5200189;28;20109;-76
2020/12/03 07:27:28;;;;;;;36.53;21.10;;;;;;;1.60;100.00;99721.91;5199514;28;20028;-76
2020/12/03 07:30:02;;;;;;;36.85;21.25;;;;;;;1.67;100.00;99721.81;5200067;28;20387;-76
2020/12/03 07:32:56;;;;;;;37.15;21.95;;;;;;;1.68;100.00;99715.78;5186530;28;20039;-76
2020/12/03 07:35:33;;;;;;;39.13;20.77;;;;;;;1.68;100.00;99714.91;5181900;28;20025;-76
2020/12/03 07:38:19;;;;;;;33.25;20.13;;;;;;;1.79;99.90;99701.03;5161921;28;20506;-76
2020/12/03 07:40:54;;;;;;;37.22;20.30;;;;;;;1.89;100.00;99700.88;5161964;28;20026;-76
2020/12/03 07:43:29;;;;;;;28.33;15.57;;;;;;;2.04;99.34;99686.91;5161485;28;20039;-76
2020/12/03 07:46:00;;;;;;;35.72;19.65;;;;;;;2.04;99.29;99684.31;5160431;28;20026;-78
2020/12/03 07:48:30;;;;;;;31.17;18.10;;;;;;;2.09;97.91;99688.53;5161546;28;20511;-76
2020/12/03 07:51:01;;;;;;;32.00;19.10;;;;;;;2.25;97.21;99686.53;5175539;28;20033;-76
2020/12/03 07:53:33;;;;;;;30.52;17.20;;;;;;;2.35;96.96;99675.22;5180884;28;20037;-76
2020/12/03 07:56:24;;;;;;;32.05;18.88;;;;;;;2.23;98.01;99671.13;5186202;28;20075;-78
2020/12/03 07:58:54;;;;;;;31.38;18.30;;;;;;;2.11;98.55;99662.72;5187491;28;20030;-76
2020/12/03 08:01:27;;;;;;;31.45;18.65;;;;;;;2.08;98.85;99666.22;5201560;28;20025;-76
2020/12/03 08:04:18;;;;;;;31.98;18.33;;;;;;;2.14;99.11;99663.53;5183256;28;20506;-76
2020/12/03 08:07:01;;;;;;;30.27;18.02;;;;;;;2.15;98.73;99651.50;5181574;28;20038;-76
2020/12/03 08:09:42;;;;;;;29.80;17.98;;;;;;;2.04;99.55;99658.56;5181227;28;20096;-78
2020/12/03 08:12:16;;;;;;;31.02;17.90;;;;;;;2.04;99.59;99650.81;5182372;28;20022;-76
2020/12/03 08:14:47;;;;;;;30.65;18.40;;;;;;;2.00;98.88;99641.47;5179914;28;20025;-76
2020/12/03 08:17:21;;;;;;;28.70;17.17;;;;;;;2.15;98.63;99647.19;5181438;28;20030;-76
2020/12/03 08:19:57;;;;;;;29.17;18.15;;;;;;;2.17;99.09;99647.19;5180048;28;20029;-75
2020/12/03 08:22:31;;;;;;;31.10;18.58;;;;;;;2.11;98.75;99645.56;5182177;28;20022;-76
2020/12/03 08:25:11;;;;;;;32.85;17.88;;;;;;;2.16;98.78;99636.00;5186025;28;20047;-76
2020/12/03 08:27:42;;;;;;;29.98;18.05;;;;;;;2.18;99.15;99641.97;5190194;28;20502;-75
2020/12/03 08:33:17;;;;;;;30.25;17.80;;;;;;;2.07;99.44;99632.75;5184205;28;20122;-76
2020/12/03 08:35:50;;;;;;;30.15;17.83;;;;;;;2.17;99.58;99631.72;5181074;28;20057;-75
2020/12/03 08:38:25;;;;;;;31.98;18.08;;;;;;;2.03;99.89;99620.78;5180475;28;20495;-76
2020/12/03 08:40:58;;;;;;;30.98;18.00;;;;;;;2.14;99.42;99624.03;5181170;28;20026;-75
2020/12/03 08:43:31;;;;;;;27.58;17.70;;;;;;;2.12;99.15;99618.03;5180431;28;20112;-76
2020/12/03 08:46:08;;;;;;;29.13;17.48;;;;;;;2.08;98.46;99613.81;5179993;28;20364;-76
2020/12/03 08:48:40;;;;;;;27.80;16.48;;;;;;;2.16;98.35;99611.97;5181370;28;20113;-76
2020/12/03 08:51:13;;;;;;;29.40;17.30;;;;;;;2.23;98.50;99606.69;5181033;28;20026;-76
2020/12/03 08:53:46;;;;;;;33.88;18.20;;;;;;;2.20;98.66;99609.31;5183189;28;20025;-76
2020/12/03 08:56:17;;;;;;;29.05;17.25;;;;;;;2.30;98.51;99615.19;5187508;28;20029;-76
2020/12/03 08:59:05;;;;;;;28.55;16.33;;;;;;;2.39;99.20;99607.25;5184499;28;20018;-76
2020/12/03 09:01:40;;;;;;;30.58;17.30;;;;;;;2.32;100.00;99603.09;5183242;28;20037;-76
2020/12/03 09:04:11;;;;;;;28.23;16.70;;;;;;;2.51;100.00;99594.97;5192901;28;20596;-76
2020/12/03 09:06:52;;;;;;;28.55;17.27;;;;;;;2.43;99.30;99593.44;5199250;28;20053;-76
2020/12/03 09:09:25;;;;;;;28.15;17.02;;;;;;;2.53;99.60;99592.38;5190148;28;20038;-76
2020/12/03 09:11:56;;;;;;;28.15;17.10;;;;;;;2.65;99.60;99595.56;5180724;28;20029;-76
2020/12/03 09:14:30;;;;;;;27.80;17.33;;;;;;;2.69;98.40;99594.63;5180851;28;20412;-78
2020/12/03 09:17:05;;;;;;;30.55;17.83;;;;;;;2.71;97.96;99576.56;5179528;28;20500;-76
2020/12/03 09:19:36;;;;;;;30.08;17.83;;;;;;;2.72;98.50;99579.06;5181757;28;20025;-77
2020/12/03 09:22:08;;;;;;;28.63;17.25;;;;;;;2.89;98.81;99565.84;5185354;28;20087;-76
2020/12/03 09:24:39;;;;;;;28.05;17.23;;;;;;;2.86;97.61;99560.75;5189700;28;20672;-76
2020/12/03 09:27:11;;;;;;;27.60;17.55;;;;;;;2.90;97.60;99559.81;5188659;28;20073;-78
2020/12/03 09:29:49;;;;;;;29.52;17.45;;;;;;;3.00;96.97;99559.56;5182378;28;20503;-76
2020/12/03 09:32:23;;;;;;;28.88;17.00;;;;;;;3.05;96.76;99550.00;5183301;28;20029;-78
2020/12/03 09:34:56;;;;;;;28.75;17.65;;;;;;;2.98;96.62;99524.34;5198061;28;20395;-76
2020/12/03 09:37:28;;;;;;;28.48;17.08;;;;;;;2.94;96.22;99527.91;5204893;28;20507;-76
2020/12/03 09:40:01;;;;;;;30.48;17.95;;;;;;;2.88;97.08;99528.88;5204759;28;20060;-76
2020/12/03 09:42:36;;;;;;;33.22;19.13;;;;;;;2.93;97.73;99519.31;5204623;28;20033;-76
2020/12/03 09:45:11;;;;;;;32.97;18.65;;;;;;;2.91;96.26;99522.81;5204697;28;20033;-76
2020/12/03 09:47:44;;;;;;;33.72;19.90;;;;;;;2.89;96.78;99522.00;5204141;28;20087;-76
2020/12/03 09:50:15;;;;;;;33.55;19.60;;;;;;;2.96;97.25;99516.66;5203571;28;20026;-77
2020/12/03 09:52:47;;;;;;;33.53;19.52;;;;;;;2.91;96.03;99517.66;5184671;28;20049;-76
2020/12/03 09:55:17;;;;;;;34.72;20.40;;;;;;;3.09;96.66;99515.53;5184748;28;20391;-76
2020/12/03 09:57:56;;;;;;;37.17;21.35;;;;;;;3.01;98.42;99508.84;5191326;28;20028;-76
2020/12/03 10:00:32;;;;;;;39.28;21.00;;;;;;;2.98;97.16;99503.72;5184376;28;20057;-76
2020/12/03 10:03:21;;;;;;;;;;;;;;;2.89;96.82;99498.78;5185627;28;20084;-77
2020/12/03 10:06:28;;;;;;;39.47;22.30;;;;;;;2.81;97.86;99508.41;5186217;28;20416;-76
2020/12/03 10:09:09;;;;;;;39.33;22.20;;;;;;;2.83;98.02;99489.44;5183540;28;20034;-76
2020/12/03 10:11:54;;;;;;;39.15;21.80;;;;;;;2.97;98.06;99486.53;5182078;28;20076;-76
2020/12/03 10:14:52;;;;;;;40.60;22.67;;;;;;;3.03;98.03;99478.69;5182146;28;20029;-76
2020/12/03 10:17:28;;;;;;;39.90;22.52;;;;;;;2.97;97.69;99478.78;5182844;28;20499;-76
2020/12/03 10:20:01;;;;;;;38.15;21.85;;;;;;;3.11;97.22;99482.78;5183230;28;20041;-76
2020/12/03 10:22:52;;;;;;;40.60;22.27;;;;;;;3.09;97.18;99478.53;5185018;28;20415;-76
2020/12/03 10:25:27;;;;;;;40.53;22.90;;;;;;;3.17;97.42;99471.47;5183338;28;20034;-76
2020/12/03 10:28:00;;;;;;;44.47;23.98;;;;;;;3.20;98.40;99467.06;5192262;28;20033;-76
2020/12/03 10:30:35;;;;;;;43.05;23.48;;;;;;;3.30;99.33;99460.81;5199511;28;20033;-76
2020/12/03 10:33:13;;;;;;;40.30;22.98;;;;;;;3.17;97.71;99459.41;5189257;28;20021;-76
2020/12/03 10:35:46;;;;;;;40.72;23.20;;;;;;;3.29;97.67;99453.09;5194354;28;20647;-76
2020/12/03 10:38:24;;;;;;;41.88;23.17;;;;;;;3.23;97.98;99448.91;5202981;28;20029;-76
2020/12/03 10:40:55;;;;;;;44.38;23.48;;;;;;;3.18;97.96;99455.09;5205170;28;20021;-76
2020/12/03 10:43:33;;;;;;;44.95;22.13;;;;;;;3.30;97.76;99452.19;5203619;28;20021;-76
2020/12/03 10:46:11;;;;;;;44.13;22.98;;;;;;;3.34;98.60;99443.53;5203412;28;20029;-76
2020/12/03 10:48:47;;;;;;;39.95;22.95;;;;;;;3.34;97.87;99452.09;5202771;28;20033;-76
2020/12/03 10:51:17;;;;;;;40.63;22.08;;;;;;;3.32;97.65;99435.78;5200963;28;20021;-76
2020/12/03 10:53:48;;;;;;;41.20;22.55;;;;;;;3.32;98.04;99428.06;5185023;28;20032;-76
2020/12/03 10:56:25;;;;;;;39.60;22.52;;;;;;;3.21;97.87;99424.03;5189074;28;20036;-76
2020/12/03 10:59:08;;;;;;;40.03;22.52;;;;;;;3.32;98.38;99420.31;5200101;28;20113;-76
2020/12/03 11:01:39;;;;;;;44.42;24.05;;;;;;;3.42;98.78;99428.66;5196329;28;20029;-76
2020/12/03 11:04:10;;;;;;;45.03;23.83;;;;;;;3.42;99.00;99410.59;5185257;28;20028;-76
2020/12/03 11:06:40;;;;;;;43.67;24.08;;;;;;;3.52;98.97;99419.81;5182606;28;20026;-77
2020/12/03 11:09:17;;;;;;;40.58;23.10;;;;;;;3.53;98.47;99421.50;5182086;28;20029;-76
2020/12/03 11:11:49;;;;;;;40.85;23.30;;;;;;;3.68;98.55;99417.63;5180348;28;20045;-76
2020/12/03 11:14:19;;;;;;;43.35;23.27;;;;;;;3.53;97.74;99426.66;5188843;28;20033;-76
2020/12/03 11:17:01;;;;;;;42.13;23.55;;;;;;;3.63;98.33;99424.63;5181995;28;20503;-76
2020/12/03 11:19:33;;;;;;;40.08;22.52;;;;;;;3.59;97.58;99420.44;5182093;28;20609;-77
2020/12/03 11:22:12;;;;;;;41.08;23.05;;;;;;;3.58;97.25;99412.75;5182668;28;20403;-76
2020/12/03 11:24:53;;;;;;;43.28;23.48;;;;;;;3.56;97.61;99409.34;5199450;28;20032;-76
2020/12/03 11:27:23;;;;;;;38.85;22.60;;;;;;;3.69;97.79;99411.56;5194846;28;20498;-77
2020/12/03 11:29:54;;;;;;;42.15;23.88;;;;;;;3.69;98.46;99398.66;5183188;28;20030;-76
2020/12/03 11:32:27;;;;;;;40.45;23.85;;;;;;;3.70;98.28;99395.19;5184121;28;20022;-76
2020/12/03 11:34:57;;;;;;;46.20;24.85;;;;;;;3.78;98.68;99387.22;5182663;28;20112;-76
2020/12/03 11:37:28;;;;;;;45.60;25.08;;;;;;;3.87;98.70;99393.00;5182173;28;20587;-76
2020/12/03 11:40:04;;;;;;;42.50;23.98;;;;;;;3.83;97.62;99385.34;5239862;22;20103;-78
2020/12/03 11:42:49;;;;;;;40.75;23.92;;;;;;;3.68;97.84;99386.63;5221461;28;20047;-78
2020/12/03 11:48:36;;;;;;;46.30;23.50;;;;;;;3.78;98.16;99375.16;5211346;28;20036;-78
2020/12/03 11:51:07;;;;;;;43.75;24.02;;;;;;;3.82;97.79;99371.59;5216313;28;20192;-78
2020/12/03 11:53:37;;;;;;;43.30;23.80;;;;;;;3.74;98.23;99365.78;5221383;28;20047;-78
2020/12/03 11:56:17;;;;;;;44.38;24.13;;;;;;;3.66;98.13;99364.31;5224067;28;20040;-78
2020/12/03 11:58:47;;;;;;;43.47;23.55;;;;;;;3.76;98.09;99358.84;5222087;28;20024;-78
2020/12/03 12:01:17;;;;;;;44.20;24.85;;;;;;;3.69;97.29;99352.16;5222556;28;20502;-78
2020/12/03 12:03:49;;;;;;;47.85;24.30;;;;;;;3.65;96.80;99345.38;5222246;28;20032;-78
2020/12/03 12:06:37;;;;;;;43.90;25.20;;;;;;;3.70;97.08;99346.13;5221950;28;20425;-78
2020/12/03 12:09:29;;;;;;;43.78;23.13;;;;;;;3.76;96.57;99345.94;5217749;28;20021;-78
2020/12/03 12:11:59;;;;;;;40.88;23.42;;;;;;;3.74;96.44;99333.94;5222644;28;20032;-78